sensor_id;sensor_type;location;lat;lon;timestamp;pressure;altitude;pressure_sealevel;temperature
75811;BMP280;64449;50.016;19.954;2023-03-29T00:00:07;99312.50;;;1.39
75811;BMP280;64449;50.016;19.954;2023-03-29T00:02:37;99311.22;;;1.36
75811;BMP280;64449;50.016;19.954;2023-03-29T00:05:03;99313.83;;;1.33
75811;BMP280;64449;50.016;19.954;2023-03-29T00:07:29;99314.81;;;1.30
75811;BMP280;64449;50.016;19.954;2023-03-29T00:09:58;99316.21;;;1.27
75811;BMP280;64449;50.016;19.954;2023-03-29T00:12:24;99310.83;;;1.24
75811;BMP280;64449;50.016;19.954;2023-03-29T00:14:49;99314.11;;;1.21
75811;BMP280;64449;50.016;19.954;2023-03-29T00:17:15;99313.60;;;1.19
75811;BMP280;64449;50.016;19.954;2023-03-29T00:19:44;99316.83;;;1.16
75811;BMP280;64449;50.016;19.954;2023-03-29T00:22:10;99319.56;;;1.13
75811;BMP280;64449;50.016;19.954;2023-03-29T00:24:36;99315.10;;;1.09
75811;BMP280;64449;50.016;19.954;2023-03-29T00:27:02;99318.33;;;1.07
75811;BMP280;64449;50.016;19.954;2023-03-29T00:29:27;99325.30;;;1.06
75811;BMP280;64449;50.016;19.954;2023-03-29T00:31:53;99325.30;;;1.03
75811;BMP280;64449;50.016;19.954;2023-03-29T00:34:21;99329.30;;;1.03
75811;BMP280;64449;50.016;19.954;2023-03-29T00:36:46;99330.42;;;1.04
75811;BMP280;64449;50.016;19.954;2023-03-29T00:39:20;99333.67;;;1.03
75811;BMP280;64449;50.016;19.954;2023-03-29T00:41:47;99331.94;;;1.02
75811;BMP280;64449;50.016;19.954;2023-03-29T00:47:49;99330.41;;;1.00
75811;BMP280;64449;50.016;19.954;2023-03-29T00:50:29;99332.30;;;0.99
75811;BMP280;64449;50.016;19.954;2023-03-29T00:55:43;99326.56;;;1.00
75811;BMP280;64449;50.016;19.954;2023-03-29T00:58:13;99326.20;;;0.99
75811;BMP280;64449;50.016;19.954;2023-03-29T01:00:53;99325.40;;;0.99
75811;BMP280;64449;50.016;19.954;2023-03-29T01:03:23;99319.41;;;0.97
75811;BMP280;64449;50.016;19.954;2023-03-29T01:05:57;99316.05;;;0.95
75811;BMP280;64449;50.016;19.954;2023-03-29T01:08:35;99317.14;;;0.93
75811;BMP280;64449;50.016;19.954;2023-03-29T01:11:17;99313.77;;;0.92
75811;BMP280;64449;50.016;19.954;2023-03-29T01:14:05;99318.44;;;0.91
75811;BMP280;64449;50.016;19.954;2023-03-29T01:16:34;99315.43;;;0.89
75811;BMP280;64449;50.016;19.954;2023-03-29T01:19:03;99310.10;;;0.87
75811;BMP280;64449;50.016;19.954;2023-03-29T01:21:40;99307.52;;;0.85
75811;BMP280;64449;50.016;19.954;2023-03-29T01:29:49;99302.45;;;0.82
75811;BMP280;64449;50.016;19.954;2023-03-29T01:32:28;99301.73;;;0.80
75811;BMP280;64449;50.016;19.954;2023-03-29T01:37:33;99296.02;;;0.79
75811;BMP280;64449;50.016;19.954;2023-03-29T01:40:02;99296.25;;;0.78
75811;BMP280;64449;50.016;19.954;2023-03-29T01:42:41;99294.09;;;0.75
75811;BMP280;64449;50.016;19.954;2023-03-29T01:45:30;99292.67;;;0.74
75811;BMP280;64449;50.016;19.954;2023-03-29T01:50:49;99297.27;;;0.71
75811;BMP280;64449;50.016;19.954;2023-03-29T01:53:26;99297.02;;;0.72
75811;BMP280;64449;50.016;19.954;2023-03-29T01:56:01;99298.54;;;0.70
75811;BMP280;64449;50.016;19.954;2023-03-29T01:58:32;99296.67;;;0.67
75811;BMP280;64449;50.016;19.954;2023-03-29T02:01:02;99298.05;;;0.66
75811;BMP280;64449;50.016;19.954;2023-03-29T02:03:31;99301.28;;;0.64
75811;BMP280;64449;50.016;19.954;2023-03-29T02:05:59;99303.23;;;0.62
75811;BMP280;64449;50.016;19.954;2023-03-29T02:08:25;99303.50;;;0.58
75811;BMP280;64449;50.016;19.954;2023-03-29T02:10:52;99302.30;;;0.53
75811;BMP280;64449;50.016;19.954;2023-03-29T02:13:18;99304.05;;;0.50
75811;BMP280;64449;50.016;19.954;2023-03-29T02:15:45;99302.52;;;0.48
75811;BMP280;64449;50.016;19.954;2023-03-29T02:18:15;99300.11;;;0.44
75811;BMP280;64449;50.016;19.954;2023-03-29T02:20:44;99295.23;;;0.39
75811;BMP280;64449;50.016;19.954;2023-03-29T02:23:18;99293.50;;;0.36
75811;BMP280;64449;50.016;19.954;2023-03-29T02:25:46;99293.63;;;0.33
75811;BMP280;64449;50.016;19.954;2023-03-29T02:28:15;99294.92;;;0.30
75811;BMP280;64449;50.016;19.954;2023-03-29T02:30:54;99292.48;;;0.27
75811;BMP280;64449;50.016;19.954;2023-03-29T02:33:25;99294.05;;;0.26
75811;BMP280;64449;50.016;19.954;2023-03-29T02:35:59;99289.85;;;0.23
75811;BMP280;64449;50.016;19.954;2023-03-29T02:38:28;99294.39;;;0.20
75811;BMP280;64449;50.016;19.954;2023-03-29T02:40:56;99293.41;;;0.16
75811;BMP280;64449;50.016;19.954;2023-03-29T02:43:23;99294.29;;;0.13
75811;BMP280;64449;50.016;19.954;2023-03-29T02:45:50;99297.32;;;0.11
75811;BMP280;64449;50.016;19.954;2023-03-29T02:48:19;99299.64;;;0.09
75811;BMP280;64449;50.016;19.954;2023-03-29T02:50:50;99296.69;;;0.07
75811;BMP280;64449;50.016;19.954;2023-03-29T02:53:21;99298.74;;;0.06
75811;BMP280;64449;50.016;19.954;2023-03-29T02:55:48;99299.80;;;0.04
75811;BMP280;64449;50.016;19.954;2023-03-29T02:58:14;99298.47;;;0.02
75811;BMP280;64449;50.016;19.954;2023-03-29T03:00:45;99298.31;;;0.01
75811;BMP280;64449;50.016;19.954;2023-03-29T03:03:12;99297.56;;;0.00
75811;BMP280;64449;50.016;19.954;2023-03-29T03:05:40;99299.11;;;0.00
75811;BMP280;64449;50.016;19.954;2023-03-29T03:08:06;99297.31;;;-0.00
75811;BMP280;64449;50.016;19.954;2023-03-29T03:10:32;99295.92;;;-0.00
75811;BMP280;64449;50.016;19.954;2023-03-29T03:12:59;99295.39;;;0.00
75811;BMP280;64449;50.016;19.954;2023-03-29T03:15:25;99299.92;;;0.00
75811;BMP280;64449;50.016;19.954;2023-03-29T03:17:51;99296.58;;;-0.00
75811;BMP280;64449;50.016;19.954;2023-03-29T03:20:17;99302.86;;;-0.02
75811;BMP280;64449;50.016;19.954;2023-03-29T03:22:45;99304.84;;;-0.04
75811;BMP280;64449;50.016;19.954;2023-03-29T03:25:14;99309.98;;;-0.08
75811;BMP280;64449;50.016;19.954;2023-03-29T03:27:42;99307.44;;;-0.11
75811;BMP280;64449;50.016;19.954;2023-03-29T03:30:08;99307.58;;;-0.15
75811;BMP280;64449;50.016;19.954;2023-03-29T03:32:34;99306.41;;;-0.18
75811;BMP280;64449;50.016;19.954;2023-03-29T03:35:01;99307.39;;;-0.20
75811;BMP280;64449;50.016;19.954;2023-03-29T03:37:27;99310.00;;;-0.22
75811;BMP280;64449;50.016;19.954;2023-03-29T03:39:53;99309.02;;;-0.24
75811;BMP280;64449;50.016;19.954;2023-03-29T03:42:19;99309.62;;;-0.25
75811;BMP280;64449;50.016;19.954;2023-03-29T03:44:44;99307.77;;;-0.25
75811;BMP280;64449;50.016;19.954;2023-03-29T03:47:10;99308.17;;;-0.27
75811;BMP280;64449;50.016;19.954;2023-03-29T03:49:38;99305.03;;;-0.27
75811;BMP280;64449;50.016;19.954;2023-03-29T03:52:03;99307.53;;;-0.28
75811;BMP280;64449;50.016;19.954;2023-03-29T03:54:28;99308.31;;;-0.31
75811;BMP280;64449;50.016;19.954;2023-03-29T03:56:54;99308.74;;;-0.33
75811;BMP280;64449;50.016;19.954;2023-03-29T03:59:19;99312.73;;;-0.34
75811;BMP280;64449;50.016;19.954;2023-03-29T04:01:45;99317.64;;;-0.35
75811;BMP280;64449;50.016;19.954;2023-03-29T04:04:11;99319.65;;;-0.39
75811;BMP280;64449;50.016;19.954;2023-03-29T04:06:37;99317.13;;;-0.41
75811;BMP280;64449;50.016;19.954;2023-03-29T04:09:03;99321.45;;;-0.44
75811;BMP280;64449;50.016;19.954;2023-03-29T04:11:29;99319.13;;;-0.45
75811;BMP280;64449;50.016;19.954;2023-03-29T04:13:55;99314.95;;;-0.45
75811;BMP280;64449;50.016;19.954;2023-03-29T04:16:22;99310.52;;;-0.47
75811;BMP280;64449;50.016;19.954;2023-03-29T04:18:47;99313.50;;;-0.49
75811;BMP280;64449;50.016;19.954;2023-03-29T04:21:13;99314.72;;;-0.52
75811;BMP280;64449;50.016;19.954;2023-03-29T04:23:39;99313.48;;;-0.55
75811;BMP280;64449;50.016;19.954;2023-03-29T04:26:04;99316.11;;;-0.58
75811;BMP280;64449;50.016;19.954;2023-03-29T04:28:30;99317.08;;;-0.61
75811;BMP280;64449;50.016;19.954;2023-03-29T04:30:56;99315.42;;;-0.62
75811;BMP280;64449;50.016;19.954;2023-03-29T04:33:21;99315.81;;;-0.63
75811;BMP280;64449;50.016;19.954;2023-03-29T04:35:47;99311.38;;;-0.65
75811;BMP280;64449;50.016;19.954;2023-03-29T04:38:12;99312.25;;;-0.66
75811;BMP280;64449;50.016;19.954;2023-03-29T04:40:38;99309.31;;;-0.66
75811;BMP280;64449;50.016;19.954;2023-03-29T04:43:03;99311.98;;;-0.67
75811;BMP280;64449;50.016;19.954;2023-03-29T04:45:29;99311.22;;;-0.68
75811;BMP280;64449;50.016;19.954;2023-03-29T04:47:58;99309.79;;;-0.68
75811;BMP280;64449;50.016;19.954;2023-03-29T04:50:26;99309.91;;;-0.68
75811;BMP280;64449;50.016;19.954;2023-03-29T04:52:52;99310.14;;;-0.67
75811;BMP280;64449;50.016;19.954;2023-03-29T04:55:17;99311.58;;;-0.67
75811;BMP280;64449;50.016;19.954;2023-03-29T04:57:43;99309.41;;;-0.68
75811;BMP280;64449;50.016;19.954;2023-03-29T05:00:11;99308.61;;;-0.68
75811;BMP280;64449;50.016;19.954;2023-03-29T05:02:40;99308.02;;;-0.66
75811;BMP280;64449;50.016;19.954;2023-03-29T05:05:07;99304.64;;;-0.62
75811;BMP280;64449;50.016;19.954;2023-03-29T05:07:33;99305.84;;;-0.60
75811;BMP280;64449;50.016;19.954;2023-03-29T05:10:00;99300.80;;;-0.56
75811;BMP280;64449;50.016;19.954;2023-03-29T05:12:25;99297.06;;;-0.54
75811;BMP280;64449;50.016;19.954;2023-03-29T05:14:50;99294.80;;;-0.54
75811;BMP280;64449;50.016;19.954;2023-03-29T05:17:16;99290.09;;;-0.53
75811;BMP280;64449;50.016;19.954;2023-03-29T05:19:41;99295.15;;;-0.51
75811;BMP280;64449;50.016;19.954;2023-03-29T05:22:08;99296.07;;;-0.50
75811;BMP280;64449;50.016;19.954;2023-03-29T05:24:33;99295.61;;;-0.48
75811;BMP280;64449;50.016;19.954;2023-03-29T05:26:59;99292.55;;;-0.47
75811;BMP280;64449;50.016;19.954;2023-03-29T05:29:25;99297.59;;;-0.41
75811;BMP280;64449;50.016;19.954;2023-03-29T05:31:51;99300.23;;;-0.37
75811;BMP280;64449;50.016;19.954;2023-03-29T05:34:17;99303.78;;;-0.31
75811;BMP280;64449;50.016;19.954;2023-03-29T05:36:42;99305.22;;;-0.24
75811;BMP280;64449;50.016;19.954;2023-03-29T05:39:09;99304.81;;;-0.20
75811;BMP280;64449;50.016;19.954;2023-03-29T05:41:35;99309.16;;;-0.16
75811;BMP280;64449;50.016;19.954;2023-03-29T05:44:00;99310.37;;;-0.13
75811;BMP280;64449;50.016;19.954;2023-03-29T05:46:27;99311.23;;;-0.12
75811;BMP280;64449;50.016;19.954;2023-03-29T05:48:52;99308.78;;;-0.10
75811;BMP280;64449;50.016;19.954;2023-03-29T05:51:18;99306.39;;;-0.06
75811;BMP280;64449;50.016;19.954;2023-03-29T05:53:46;99306.16;;;-0.02
75811;BMP280;64449;50.016;19.954;2023-03-29T05:56:11;99304.65;;;0.03
75811;BMP280;64449;50.016;19.954;2023-03-29T05:58:40;99309.08;;;0.09
75811;BMP280;64449;50.016;19.954;2023-03-29T06:01:10;99310.88;;;0.15
75811;BMP280;64449;50.016;19.954;2023-03-29T06:03:37;99306.73;;;0.21
75811;BMP280;64449;50.016;19.954;2023-03-29T06:06:03;99306.23;;;0.26
75811;BMP280;64449;50.016;19.954;2023-03-29T06:08:29;99307.91;;;0.31
75811;BMP280;64449;50.016;19.954;2023-03-29T06:10:57;99311.19;;;0.35
75811;BMP280;64449;50.016;19.954;2023-03-29T06:13:23;99311.05;;;0.41
75811;BMP280;64449;50.016;19.954;2023-03-29T06:15:48;99309.11;;;0.48
75811;BMP280;64449;50.016;19.954;2023-03-29T06:18:14;99307.89;;;0.55
75811;BMP280;64449;50.016;19.954;2023-03-29T06:20:39;99311.31;;;0.62
75811;BMP280;64449;50.016;19.954;2023-03-29T06:23:05;99309.99;;;0.69
75811;BMP280;64449;50.016;19.954;2023-03-29T06:25:32;99310.56;;;0.76
75811;BMP280;64449;50.016;19.954;2023-03-29T06:27:58;99312.89;;;0.81
75811;BMP280;64449;50.016;19.954;2023-03-29T06:30:23;99319.29;;;0.88
75811;BMP280;64449;50.016;19.954;2023-03-29T06:32:49;99315.02;;;0.94
75811;BMP280;64449;50.016;19.954;2023-03-29T06:35:14;99318.59;;;1.04
75811;BMP280;64449;50.016;19.954;2023-03-29T06:37:40;99318.30;;;1.13
75811;BMP280;64449;50.016;19.954;2023-03-29T06:40:17;99318.60;;;1.23
75811;BMP280;64449;50.016;19.954;2023-03-29T06:42:44;99318.37;;;1.31
75811;BMP280;64449;50.016;19.954;2023-03-29T06:45:10;99320.16;;;1.39
75811;BMP280;64449;50.016;19.954;2023-03-29T06:47:36;99324.20;;;1.48
75811;BMP280;64449;50.016;19.954;2023-03-29T06:50:02;99328.83;;;1.56
75811;BMP280;64449;50.016;19.954;2023-03-29T06:52:27;99331.77;;;1.67
75811;BMP280;64449;50.016;19.954;2023-03-29T06:54:53;99324.89;;;1.77
75811;BMP280;64449;50.016;19.954;2023-03-29T06:57:18;99330.60;;;1.90
75811;BMP280;64449;50.016;19.954;2023-03-29T06:59:43;99327.63;;;2.03
75811;BMP280;64449;50.016;19.954;2023-03-29T07:02:09;99326.38;;;2.16
75811;BMP280;64449;50.016;19.954;2023-03-29T07:04:37;99330.46;;;2.31
75811;BMP280;64449;50.016;19.954;2023-03-29T07:07:02;99331.79;;;2.44
75811;BMP280;64449;50.016;19.954;2023-03-29T07:09:30;99333.30;;;2.59
75811;BMP280;64449;50.016;19.954;2023-03-29T07:11:57;99329.88;;;2.72
75811;BMP280;64449;50.016;19.954;2023-03-29T07:14:24;99332.27;;;2.85
75811;BMP280;64449;50.016;19.954;2023-03-29T07:16:54;99333.77;;;3.02
75811;BMP280;64449;50.016;19.954;2023-03-29T07:19:20;99334.55;;;3.18
75811;BMP280;64449;50.016;19.954;2023-03-29T07:21:49;99334.48;;;3.34
75811;BMP280;64449;50.016;19.954;2023-03-29T07:24:16;99335.34;;;3.54
75811;BMP280;64449;50.016;19.954;2023-03-29T07:26:43;99333.31;;;3.72
75811;BMP280;64449;50.016;19.954;2023-03-29T07:29:09;99332.67;;;3.90
75811;BMP280;64449;50.016;19.954;2023-03-29T07:31:35;99331.38;;;4.03
75811;BMP280;64449;50.016;19.954;2023-03-29T07:34:05;99325.79;;;4.15
75811;BMP280;64449;50.016;19.954;2023-03-29T07:36:30;99330.13;;;4.33
75811;BMP280;64449;50.016;19.954;2023-03-29T07:38:58;99326.20;;;4.50
75811;BMP280;64449;50.016;19.954;2023-03-29T07:41:26;99329.56;;;4.67
75811;BMP280;64449;50.016;19.954;2023-03-29T07:43:52;99331.32;;;4.85
75811;BMP280;64449;50.016;19.954;2023-03-29T07:46:18;99330.34;;;5.03
75811;BMP280;64449;50.016;19.954;2023-03-29T07:48:43;99325.14;;;5.18
75811;BMP280;64449;50.016;19.954;2023-03-29T07:51:09;99326.08;;;5.31
75811;BMP280;64449;50.016;19.954;2023-03-29T07:53:35;99318.13;;;5.44
75811;BMP280;64449;50.016;19.954;2023-03-29T07:56:00;99323.83;;;5.58
75811;BMP280;64449;50.016;19.954;2023-03-29T07:58:25;99321.63;;;5.75
75811;BMP280;64449;50.016;19.954;2023-03-29T08:00:51;99317.52;;;5.86
75811;BMP280;64449;50.016;19.954;2023-03-29T08:03:17;99316.87;;;6.03
75811;BMP280;64449;50.016;19.954;2023-03-29T08:05:42;99315.59;;;6.26
75811;BMP280;64449;50.016;19.954;2023-03-29T08:08:08;99315.09;;;6.59
75811;BMP280;64449;50.016;19.954;2023-03-29T08:10:36;99316.30;;;6.93
75811;BMP280;64449;50.016;19.954;2023-03-29T08:13:07;99310.38;;;7.23
75811;BMP280;64449;50.016;19.954;2023-03-29T08:15:33;99304.55;;;7.38
75811;BMP280;64449;50.016;19.954;2023-03-29T08:17:59;99306.10;;;7.50
75811;BMP280;64449;50.016;19.954;2023-03-29T08:20:24;99307.38;;;7.61
75811;BMP280;64449;50.016;19.954;2023-03-29T08:22:50;99301.84;;;7.69
75811;BMP280;64449;50.016;19.954;2023-03-29T08:25:15;99295.73;;;7.84
75811;BMP280;64449;50.016;19.954;2023-03-29T08:27:41;99293.36;;;8.09
75811;BMP280;64449;50.016;19.954;2023-03-29T08:30:08;99293.69;;;8.42
75811;BMP280;64449;50.016;19.954;2023-03-29T08:32:34;99297.22;;;8.86
75811;BMP280;64449;50.016;19.954;2023-03-29T08:35:02;99296.92;;;9.10
75811;BMP280;64449;50.016;19.954;2023-03-29T08:37:29;99303.00;;;9.32
75811;BMP280;64449;50.016;19.954;2023-03-29T08:39:55;99290.95;;;9.49
75811;BMP280;64449;50.016;19.954;2023-03-29T08:42:49;99299.10;;;9.68
75811;BMP280;64449;50.016;19.954;2023-03-29T08:48:37;99287.65;;;10.04
75811;BMP280;64449;50.016;19.954;2023-03-29T08:51:37;99287.28;;;10.34
75811;BMP280;64449;50.016;19.954;2023-03-29T08:54:05;99283.48;;;10.71
75811;BMP280;64449;50.016;19.954;2023-03-29T08:56:33;99282.14;;;11.08
75811;BMP280;64449;50.016;19.954;2023-03-29T08:59:00;99278.49;;;11.47
75811;BMP280;64449;50.016;19.954;2023-03-29T09:01:30;99278.81;;;11.99
75811;BMP280;64449;50.016;19.954;2023-03-29T09:06:27;99276.80;;;13.18
75811;BMP280;64449;50.016;19.954;2023-03-29T09:08:53;99273.70;;;13.69
75811;BMP280;64449;50.016;19.954;2023-03-29T09:16:57;99267.84;;;16.06
75811;BMP280;64449;50.016;19.954;2023-03-29T09:22:42;99255.17;;;18.39
75811;BMP280;64449;50.016;19.954;2023-03-29T09:25:17;99258.73;;;20.15
75811;BMP280;64449;50.016;19.954;2023-03-29T09:30:41;99255.16;;;23.42
75811;BMP280;64449;50.016;19.954;2023-03-29T09:33:14;99250.14;;;24.88
75811;BMP280;64449;50.016;19.954;2023-03-29T09:35:53;99249.92;;;26.68
75811;BMP280;64449;50.016;19.954;2023-03-29T09:38:22;99253.40;;;28.46
75811;BMP280;64449;50.016;19.954;2023-03-29T09:40:51;99246.46;;;29.94
75811;BMP280;64449;50.016;19.954;2023-03-29T09:43:29;99237.55;;;31.38
75811;BMP280;64449;50.016;19.954;2023-03-29T09:45:57;99234.47;;;32.60
75811;BMP280;64449;50.016;19.954;2023-03-29T09:48:25;99233.11;;;33.13
75811;BMP280;64449;50.016;19.954;2023-03-29T09:50:53;99231.03;;;33.49
75811;BMP280;64449;50.016;19.954;2023-03-29T09:53:19;99233.73;;;34.11
75811;BMP280;64449;50.016;19.954;2023-03-29T09:55:47;99233.30;;;34.89
75811;BMP280;64449;50.016;19.954;2023-03-29T09:58:25;99225.39;;;35.71
75811;BMP280;64449;50.016;19.954;2023-03-29T10:00:53;99221.48;;;36.35
75811;BMP280;64449;50.016;19.954;2023-03-29T10:03:28;99221.07;;;36.56
75811;BMP280;64449;50.016;19.954;2023-03-29T10:06:00;99212.70;;;35.49
75811;BMP280;64449;50.016;19.954;2023-03-29T10:08:34;99217.33;;;34.08
75811;BMP280;64449;50.016;19.954;2023-03-29T10:11:03;99213.48;;;33.12
75811;BMP280;64449;50.016;19.954;2023-03-29T10:13:35;99215.05;;;32.45
75811;BMP280;64449;50.016;19.954;2023-03-29T10:16:15;99218.52;;;32.55
75811;BMP280;64449;50.016;19.954;2023-03-29T10:18:42;99220.08;;;32.33
75811;BMP280;64449;50.016;19.954;2023-03-29T10:21:12;99210.13;;;32.60
75811;BMP280;64449;50.016;19.954;2023-03-29T10:23:41;99212.33;;;32.93
75811;BMP280;64449;50.016;19.954;2023-03-29T10:28:51;99212.15;;;32.86
75811;BMP280;64449;50.016;19.954;2023-03-29T10:31:20;99201.95;;;32.48
75811;BMP280;64449;50.016;19.954;2023-03-29T10:33:54;99200.44;;;32.76
75811;BMP280;64449;50.016;19.954;2023-03-29T10:36:22;99197.85;;;33.35
75811;BMP280;64449;50.016;19.954;2023-03-29T10:38:50;99198.48;;;34.24
75811;BMP280;64449;50.016;19.954;2023-03-29T10:41:16;99192.98;;;35.27
75811;BMP280;64449;50.016;19.954;2023-03-29T10:43:45;99188.41;;;35.66
75811;BMP280;64449;50.016;19.954;2023-03-29T10:49:15;99184.89;;;36.30
75811;BMP280;64449;50.016;19.954;2023-03-29T10:51:46;99182.30;;;36.13
75811;BMP280;64449;50.016;19.954;2023-03-29T10:54:15;99181.80;;;35.71
75811;BMP280;64449;50.016;19.954;2023-03-29T10:56:48;99180.74;;;35.04
75811;BMP280;64449;50.016;19.954;2023-03-29T10:59:38;99178.42;;;34.57
75811;BMP280;64449;50.016;19.954;2023-03-29T11:02:24;99177.75;;;34.58
75811;BMP280;64449;50.016;19.954;2023-03-29T11:05:12;99174.48;;;34.38
75811;BMP280;64449;50.016;19.954;2023-03-29T11:23:44;99149.44;;;39.80
75811;BMP280;64449;50.016;19.954;2023-03-29T11:29:07;99153.80;;;39.26
75811;BMP280;64449;50.016;19.954;2023-03-29T11:32:04;99150.92;;;38.88
75811;BMP280;64449;50.016;19.954;2023-03-29T11:34:37;99140.52;;;38.77
75811;BMP280;64449;50.016;19.954;2023-03-29T11:42:50;99132.19;;;38.96
75811;BMP280;64449;50.016;19.954;2023-03-29T11:45:31;99129.20;;;38.48
75811;BMP280;64449;50.016;19.954;2023-03-29T11:47:59;99129.26;;;36.20
75811;BMP280;64449;50.016;19.954;2023-03-29T11:53:30;99126.58;;;30.47
75811;BMP280;64449;50.016;19.954;2023-03-29T11:56:18;99126.38;;;28.32
75811;BMP280;64449;50.016;19.954;2023-03-29T11:58:52;99124.36;;;26.68
75811;BMP280;64449;50.016;19.954;2023-03-29T12:02:01;99124.74;;;25.44
75811;BMP280;64449;50.016;19.954;2023-03-29T12:04:33;99125.43;;;24.35
75811;BMP280;64449;50.016;19.954;2023-03-29T12:09:39;99126.45;;;22.92
75811;BMP280;64449;50.016;19.954;2023-03-29T12:20:38;99114.63;;;19.51
75811;BMP280;64449;50.016;19.954;2023-03-29T12:23:06;99112.42;;;18.97
75811;BMP280;64449;50.016;19.954;2023-03-29T12:36:41;99092.67;;;17.23
75811;BMP280;64449;50.016;19.954;2023-03-29T12:39:18;99093.41;;;17.09
75811;BMP280;64449;50.016;19.954;2023-03-29T12:41:44;99093.71;;;16.88
75811;BMP280;64449;50.016;19.954;2023-03-29T12:44:20;99090.77;;;16.68
75811;BMP280;64449;50.016;19.954;2023-03-29T12:46:53;99089.94;;;16.51
75811;BMP280;64449;50.016;19.954;2023-03-29T12:49:28;99093.00;;;16.42
75811;BMP280;64449;50.016;19.954;2023-03-29T12:51:58;99083.72;;;16.19
75811;BMP280;64449;50.016;19.954;2023-03-29T12:54:31;99084.93;;;16.07
75811;BMP280;64449;50.016;19.954;2023-03-29T12:57:01;99079.43;;;15.94
75811;BMP280;64449;50.016;19.954;2023-03-29T12:59:45;99081.45;;;15.91
75811;BMP280;64449;50.016;19.954;2023-03-29T13:04:58;99067.15;;;15.76
75811;BMP280;64449;50.016;19.954;2023-03-29T13:07:46;99069.25;;;15.91
75811;BMP280;64449;50.016;19.954;2023-03-29T13:13:28;99066.28;;;15.84
75811;BMP280;64449;50.016;19.954;2023-03-29T13:16:13;99059.62;;;15.77
75811;BMP280;64449;50.016;19.954;2023-03-29T13:21:48;99067.27;;;15.51
75811;BMP280;64449;50.016;19.954;2023-03-29T13:30:34;99051.05;;;15.40
75811;BMP280;64449;50.016;19.954;2023-03-29T13:33:35;99052.45;;;15.52
75811;BMP280;64449;50.016;19.954;2023-03-29T13:36:04;99045.13;;;15.44
75811;BMP280;64449;50.016;19.954;2023-03-29T13:38:31;99042.54;;;15.51
75811;BMP280;64449;50.016;19.954;2023-03-29T13:44:32;99038.88;;;15.79
75811;BMP280;64449;50.016;19.954;2023-03-29T13:47:14;99033.88;;;15.62
75811;BMP280;64449;50.016;19.954;2023-03-29T13:49:56;99034.52;;;15.50
75811;BMP280;64449;50.016;19.954;2023-03-29T13:52:57;99028.22;;;15.47
75811;BMP280;64449;50.016;19.954;2023-03-29T13:55:19;99026.23;;;15.53
75811;BMP280;64449;50.016;19.954;2023-03-29T13:57:52;99023.36;;;15.57
75811;BMP280;64449;50.016;19.954;2023-03-29T14:00:31;99021.20;;;15.55
75811;BMP280;64449;50.016;19.954;2023-03-29T14:03:04;99020.52;;;15.50
75811;BMP280;64449;50.016;19.954;2023-03-29T14:05:34;99009.06;;;15.34
75811;BMP280;64449;50.016;19.954;2023-03-29T14:08:22;99013.11;;;15.22
75811;BMP280;64449;50.016;19.954;2023-03-29T14:10:49;99005.27;;;15.01
75811;BMP280;64449;50.016;19.954;2023-03-29T14:13:18;99007.29;;;14.90
75811;BMP280;64449;50.016;19.954;2023-03-29T14:15:53;99005.99;;;14.90
75811;BMP280;64449;50.016;19.954;2023-03-29T14:18:23;99004.68;;;14.95
75811;BMP280;64449;50.016;19.954;2023-03-29T14:20:51;99002.73;;;14.99
75811;BMP280;64449;50.016;19.954;2023-03-29T14:23:21;99002.86;;;14.88
75811;BMP280;64449;50.016;19.954;2023-03-29T14:25:48;99000.18;;;14.86
75811;BMP280;64449;50.016;19.954;2023-03-29T14:28:25;98998.64;;;14.92
75811;BMP280;64449;50.016;19.954;2023-03-29T14:30:51;98996.39;;;14.93
75811;BMP280;64449;50.016;19.954;2023-03-29T14:33:29;99000.39;;;14.89
75811;BMP280;64449;50.016;19.954;2023-03-29T14:35:57;98997.52;;;14.75
75811;BMP280;64449;50.016;19.954;2023-03-29T14:38:24;98994.64;;;14.62
75811;BMP280;64449;50.016;19.954;2023-03-29T14:40:51;98991.30;;;14.59
75811;BMP280;64449;50.016;19.954;2023-03-29T14:43:19;98993.23;;;14.69
75811;BMP280;64449;50.016;19.954;2023-03-29T14:45:48;98992.59;;;14.79
75811;BMP280;64449;50.016;19.954;2023-03-29T14:48:14;98994.70;;;14.93
75811;BMP280;64449;50.016;19.954;2023-03-29T14:50:41;98996.39;;;14.98
75811;BMP280;64449;50.016;19.954;2023-03-29T14:53:07;98992.86;;;14.93
75811;BMP280;64449;50.016;19.954;2023-03-29T14:55:47;98987.16;;;14.83
75811;BMP280;64449;50.016;19.954;2023-03-29T14:58:33;98991.21;;;14.72
75811;BMP280;64449;50.016;19.954;2023-03-29T15:01:12;98989.83;;;14.53
75811;BMP280;64449;50.016;19.954;2023-03-29T15:06:18;98989.08;;;14.04
75811;BMP280;64449;50.016;19.954;2023-03-29T15:08:45;98985.11;;;13.88
75811;BMP280;64449;50.016;19.954;2023-03-29T15:11:28;98982.00;;;13.81
75811;BMP280;64449;50.016;19.954;2023-03-29T15:14:07;98980.77;;;13.77
75811;BMP280;64449;50.016;19.954;2023-03-29T15:16:37;98978.85;;;13.76
75811;BMP280;64449;50.016;19.954;2023-03-29T15:19:05;98983.36;;;13.74
75811;BMP280;64449;50.016;19.954;2023-03-29T15:21:33;98981.98;;;13.65
75811;BMP280;64449;50.016;19.954;2023-03-29T15:24:01;98982.48;;;13.63
75811;BMP280;64449;50.016;19.954;2023-03-29T15:31:37;98973.98;;;13.51
75811;BMP280;64449;50.016;19.954;2023-03-29T15:34:22;98967.34;;;13.50
75811;BMP280;64449;50.016;19.954;2023-03-29T15:36:49;98967.59;;;13.51
75811;BMP280;64449;50.016;19.954;2023-03-29T15:39:16;98964.30;;;13.50
75811;BMP280;64449;50.016;19.954;2023-03-29T15:41:45;98964.27;;;13.45
75811;BMP280;64449;50.016;19.954;2023-03-29T15:44:14;98961.50;;;13.35
75811;BMP280;64449;50.016;19.954;2023-03-29T15:46:42;98960.62;;;13.22
75811;BMP280;64449;50.016;19.954;2023-03-29T15:49:11;98961.67;;;13.10
75811;BMP280;64449;50.016;19.954;2023-03-29T15:51:37;98960.56;;;12.97
75811;BMP280;64449;50.016;19.954;2023-03-29T15:54:03;98958.59;;;12.79
75811;BMP280;64449;50.016;19.954;2023-03-29T15:56:31;98954.73;;;12.65
75811;BMP280;64449;50.016;19.954;2023-03-29T15:58:57;98951.18;;;12.51
75811;BMP280;64449;50.016;19.954;2023-03-29T16:01:33;98948.77;;;12.38
75811;BMP280;64449;50.016;19.954;2023-03-29T16:04:04;98953.78;;;12.24
75811;BMP280;64449;50.016;19.954;2023-03-29T16:06:31;98954.66;;;12.09
75811;BMP280;64449;50.016;19.954;2023-03-29T16:08:58;98951.56;;;11.96
75811;BMP280;64449;50.016;19.954;2023-03-29T16:11:24;98953.93;;;11.89